Time;durP1;ratioP1;P1;durP2;ratioP2;P2;SDS_P1;SDS_P2;PMS_P1;PMS_P2;Temp;Humidity;BMP_temperature;BMP_pressure;BME280_temperature;BME280_humidity;BME280_pressure;Samples;Min_cycle;Max_cycle;Signal;HPM_P1;HPM_P2
2021/07/05 05:53:48;;;;;;;8.55;7.85;;;;;;;25.04;59.06;97790.11;1723746;79;945898;-73
2021/07/05 05:56:17;;;;;;;5.40;4.65;;;;;;;25.18;59.19;97790.39;1760557;81;21011;-70
2021/07/05 05:58:46;;;;;;;5.47;3.77;;;;;;;25.37;57.63;97790.05;1756232;81;20969;-68
2021/07/05 06:01:15;;;;;;;3.35;3.10;;;;;;;25.52;56.39;97794.44;1720844;82;21020;-71
2021/07/05 06:03:42;;;;;;;4.12;3.77;;;;;;;25.61;55.58;97800.84;1735635;82;22207;-70
2021/07/05 06:06:09;;;;;;;4.67;4.28;;;;;;;25.70;55.43;97796.46;1729396;82;21093;-72
2021/07/05 06:08:35;;;;;;;4.70;4.30;;;;;;;25.79;54.60;97792.41;1734497;82;21033;-70
2021/07/05 06:11:02;;;;;;;3.95;3.62;;;;;;;25.85;54.30;97799.78;1715690;82;21620;-71
2021/07/05 06:13:30;;;;;;;5.33;3.90;;;;;;;25.91;54.55;97799.45;1728387;82;21576;-69
2021/07/05 06:15:56;;;;;;;4.45;4.00;;;;;;;25.98;55.09;97800.27;1731750;82;21009;-69
2021/07/05 06:18:22;;;;;;;3.72;3.40;;;;;;;26.09;55.08;97791.31;1706177;82;21477;-71
2021/07/05 06:20:49;;;;;;;3.77;3.47;;;;;;;26.22;54.29;97790.41;1729422;82;21083;-70
2021/07/05 06:23:26;;;;;;;4.42;3.85;;;;;;;26.33;53.51;97786.94;1728642;82;21597;-70
2021/07/05 06:25:53;;;;;;;3.85;3.55;;;;;;;26.42;53.29;97794.92;1729599;82;21574;-69
2021/07/05 06:28:22;;;;;;;4.87;4.42;;;;;;;26.51;53.07;97793.58;1719561;82;20946;-70
2021/07/05 06:30:48;;;;;;;4.45;3.85;;;;;;;26.60;52.76;97796.38;1707501;82;21046;-71
2021/07/05 06:33:16;;;;;;;3.52;3.22;;;;;;;26.68;53.23;97796.12;1734571;82;21025;-71
2021/07/05 06:38:54;;;;;;;3.83;3.52;;;;;;;26.93;52.72;97784.25;1684789;83;21094;-70
2021/07/05 06:41:25;;;;;;;4.17;3.70;;;;;;;27.04;52.78;97787.63;1674368;84;21010;-69
2021/07/05 06:43:55;;;;;;;5.30;3.65;;;;;;;27.11;52.83;97783.97;1671932;84;21521;-69
2021/07/05 06:46:24;;;;;;;3.47;3.27;;;;;;;27.16;52.83;97778.61;1672853;84;21118;-69
2021/07/05 06:48:53;;;;;;;5.35;4.12;;;;;;;27.23;52.90;97782.14;1678653;84;21086;-71
2021/07/05 06:51:20;;;;;;;3.90;3.58;;;;;;;27.34;53.09;97784.17;1675892;84;21014;-70
2021/07/05 06:53:47;;;;;;;6.25;5.60;;;;;;;27.49;52.42;97787.08;1682608;84;20939;-69
2021/07/05 06:56:13;;;;;;;3.87;3.58;;;;;;;27.66;52.56;97788.13;1662255;84;21095;-71
2021/07/05 06:58:41;;;;;;;4.17;3.87;;;;;;;27.82;51.28;97787.20;1683638;84;21519;-72
2021/07/05 07:01:08;;;;;;;5.75;3.70;;;;;;;27.91;50.81;97783.05;1643125;86;20923;-71
2021/07/05 07:03:34;;;;;;;4.92;3.58;;;;;;;28.00;49.94;97791.34;1644755;86;21614;-68
2021/07/05 07:06:02;;;;;;;4.50;4.08;;;;;;;28.10;49.04;97793.53;1634179;85;20921;-69
2021/07/05 07:08:30;;;;;;;4.62;3.98;;;;;;;28.13;49.14;97783.40;1644410;86;21000;-69
2021/07/05 07:10:57;;;;;;;4.22;3.33;;;;;;;28.18;48.96;97779.94;1642617;86;21137;-70
2021/07/05 07:13:23;;;;;;;4.22;3.90;;;;;;;28.26;49.17;97780.98;1628215;85;20994;-76
2021/07/05 07:19:07;;;;;;;6.67;6.03;;;;;;;28.31;48.53;97774.20;1684415;81;21007;-71
2021/07/05 07:21:28;;;;;;;4.25;3.92;;;;;;;28.35;48.02;97772.66;1666314;82;21141;-70
2021/07/05 07:23:55;;;;;;;4.80;3.85;;;;;;;28.45;48.53;97774.29;1697144;81;21086;-70
2021/07/05 07:26:22;;;;;;;4.40;3.58;;;;;;;28.57;48.02;97764.66;1687771;82;21086;-69
2021/07/05 07:28:52;;;;;;;6.15;3.92;;;;;;;28.67;48.30;97761.88;1686252;83;21050;-69
2021/07/05 07:31:18;;;;;;;3.80;3.50;;;;;;;28.73;48.15;97763.14;1677889;83;21574;-69
2021/07/05 07:33:44;;;;;;;4.20;3.80;;;;;;;28.86;47.84;97761.23;1664667;83;21738;-71
2021/07/05 07:36:12;;;;;;;8.70;4.87;;;;;;;28.95;47.02;97761.17;1668419;83;21885;-69
2021/07/05 07:38:45;;;;;;;4.58;4.28;;;;;;;29.04;46.41;97758.87;1676509;83;21579;-69
2021/07/05 07:41:10;;;;;;;6.95;4.10;;;;;;;29.02;46.29;97766.02;1676973;83;21023;-69
2021/07/05 07:43:41;;;;;;;6.35;5.75;;;;;;;29.00;47.36;97775.10;1676646;83;21659;-82
2021/07/05 07:46:07;;;;;;;6.83;6.22;;;;;;;28.94;46.74;97781.59;1676522;83;21027;-72
2021/07/05 07:48:33;;;;;;;10.85;9.58;;;;;;;28.86;47.30;97777.81;1673370;84;21073;-74
2021/07/05 07:51:00;;;;;;;8.38;7.58;;;;;;;28.73;47.47;97775.58;1670149;83;20979;-72
2021/07/05 07:53:26;;;;;;;6.70;6.08;;;;;;;28.60;47.43;97784.07;1672262;83;20978;-72
2021/07/05 07:55:54;;;;;;;13.32;12.33;;;;;;;28.42;48.10;97781.66;1648641;85;21132;-71
2021/07/05 07:58:22;;;;;;;7.25;6.65;;;;;;;28.26;48.92;97784.57;1635707;84;21028;-73
2021/07/05 08:29:32;;;;;;;8.53;5.10;;;;;;;27.82;48.75;97802.38;1670534;84;21654;-77
2021/07/05 08:35:08;;;;;;;4.90;4.50;;;;;;;27.83;49.07;97793.00;1647523;82;21181;-78
2021/07/05 08:56:52;;;;;;;5.10;4.60;;;;;;;27.77;47.16;97775.48;1677152;82;21808;-79
2021/07/05 09:05:02;;;;;;;6.40;5.85;;;;;;;27.65;48.38;97754.71;1638887;86;21566;-80
2021/07/05 09:11:04;;;;;;;6.25;5.75;;;;;;;27.64;48.41;97764.08;1692636;81;20160;-79
2021/07/05 09:40:06;;;;;;;5.65;5.15;;;;;;;27.46;48.58;97757.20;1661194;81;21654;-82
2021/07/05 10:37:40;;;;;;;6.28;4.87;;;;;;;27.44;48.98;97773.14;1707835;80;21046;-78
2021/07/05 10:53:10;;;;;;;5.47;4.90;;;;;;;27.01;49.04;97756.94;1747306;80;22249;-80
2021/07/05 11:01:38;;;;;;;4.92;4.53;;;;;;;27.08;49.78;97759.62;1686329;81;21638;-79
2021/07/05 11:04:21;;;;;;;5.37;4.87;;;;;;;27.11;49.57;97768.27;1688395;82;20955;-76
2021/07/05 11:06:50;;;;;;;;;;;;;;;27.09;48.94;97765.41;1692042;82;21889;-79
2021/07/05 11:09:22;;;;;;;5.50;4.97;;;;;;;27.03;48.90;97760.30;1692072;82;20169;-77
2021/07/05 11:11:58;;;;;;;5.58;5.08;;;;;;;26.92;48.65;97760.52;1705771;82;21013;-79
2021/07/05 11:14:34;;;;;;;5.47;4.97;;;;;;;26.78;48.87;97756.20;1722906;81;21099;-78
2021/07/05 11:17:18;;;;;;;4.97;4.58;;;;;;;26.66;49.51;97758.33;1716746;81;21042;-77
2021/07/05 11:19:56;;;;;;;5.78;5.20;;;;;;;26.59;49.30;97758.88;1747894;80;20932;-77
2021/07/05 11:22:35;;;;;;;5.50;4.33;;;;;;;26.57;49.79;97757.44;1742553;80;21556;-80
2021/07/05 11:25:22;;;;;;;4.12;3.83;;;;;;;26.57;49.56;97762.39;1726857;81;21019;-80
2021/07/05 11:27:59;;;;;;;4.35;3.95;;;;;;;26.60;48.58;97756.44;1721948;81;21090;-80
2021/07/05 11:30:41;;;;;;;4.37;4.03;;;;;;;26.66;46.94;97750.06;1697795;82;21790;-79
2021/07/05 11:33:19;;;;;;;4.33;4.03;;;;;;;26.76;48.79;97747.33;1749803;81;21474;-80
2021/07/05 11:35:56;;;;;;;6.42;4.80;;;;;;;26.85;49.10;97744.56;1693850;82;21051;-78
2021/07/05 11:38:27;;;;;;;7.70;4.80;;;;;;;26.92;48.92;97743.98;1671540;83;21570;-78
2021/07/05 11:41:04;;;;;;;7.22;4.92;;;;;;;26.98;49.81;97756.84;1701230;81;21289;-77
2021/07/05 11:44:08;;;;;;;5.45;5.00;;;;;;;26.99;49.74;97750.28;1738089;81;21062;-78
2021/07/05 11:46:39;;;;;;;5.50;4.85;;;;;;;26.98;49.57;97751.34;1750940;81;20937;-79
2021/07/05 11:49:08;;;;;;;12.07;5.17;;;;;;;26.91;48.03;97755.23;1734490;81;21022;-79
2021/07/05 11:51:47;;;;;;;7.25;5.53;;;;;;;26.85;48.26;97756.45;1731642;80;21137;-77
2021/07/05 11:54:16;;;;;;;4.83;3.90;;;;;;;26.83;49.13;97756.36;1726105;81;21487;-79
2021/07/05 11:56:49;;;;;;;4.62;4.33;;;;;;;26.83;48.67;97753.61;1741359;80;21006;-79
2021/07/05 11:59:29;;;;;;;4.90;4.50;;;;;;;26.85;48.93;97758.34;1723744;80;20943;-78
2021/07/05 12:02:02;;;;;;;5.33;4.60;;;;;;;26.89;48.10;97755.45;1737845;80;21042;-79
2021/07/05 12:04:37;;;;;;;5.22;4.53;;;;;;;26.93;49.13;97755.32;1747730;80;21002;-77
2021/07/05 12:07:11;;;;;;;5.60;3.90;;;;;;;26.99;49.37;97753.55;1745274;81;21061;-77
2021/07/05 12:09:38;;;;;;;4.50;4.20;;;;;;;27.06;47.67;97752.95;1702643;82;21584;-78
2021/07/05 12:12:16;;;;;;;3.77;3.47;;;;;;;27.14;46.67;97749.06;1694947;82;21093;-78
2021/07/05 12:14:45;;;;;;;3.70;3.33;;;;;;;27.23;44.98;97754.58;1688668;82;21066;-78
2021/07/05 12:17:14;;;;;;;7.58;4.30;;;;;;;27.26;45.34;97750.50;1706222;82;21050;-78
2021/07/05 12:19:44;;;;;;;5.20;4.10;;;;;;;27.29;45.26;97757.77;1702106;81;21228;-81
2021/07/05 12:22:19;;;;;;;5.00;3.50;;;;;;;27.31;45.73;97751.55;1744333;80;20967;-80
2021/07/05 12:24:50;;;;;;;3.90;3.60;;;;;;;27.34;45.32;97756.59;1745351;80;20981;-79
2021/07/05 12:27:20;;;;;;;4.00;3.70;;;;;;;27.33;45.43;97757.66;1756161;80;21066;-78
2021/07/05 12:29:55;;;;;;;5.22;3.65;;;;;;;27.33;46.97;97753.52;1743039;81;21042;-78
2021/07/05 12:32:33;;;;;;;3.50;3.30;;;;;;;27.36;45.33;97753.61;1693822;81;21104;-77
2021/07/05 12:35:06;;;;;;;4.78;3.20;;;;;;;27.36;45.48;97758.58;1755765;81;21468;-80
2021/07/05 12:37:54;;;;;;;6.05;5.53;;;;;;;27.37;44.70;97756.14;1757240;80;21031;-79
2021/07/05 12:40:30;;;;;;;5.00;4.50;;;;;;;27.42;45.52;97751.83;1755274;81;20979;-77
2021/07/05 12:43:12;;;;;;;4.53;3.20;;;;;;;27.46;46.04;97743.41;1749951;80;20985;-78
2021/07/05 12:45:43;;;;;;;4.80;3.80;;;;;;;27.51;44.21;97743.55;1747135;81;21049;-78
2021/07/05 12:48:20;;;;;;;4.72;2.83;;;;;;;27.56;43.81;97745.93;1753570;80;20990;-77
2021/07/05 12:51:01;;;;;;;4.25;3.92;;;;;;;27.58;43.92;97743.77;1699280;82;20982;-78
2021/07/05 12:53:35;;;;;;;3.77;3.47;;;;;;;27.63;44.16;97747.77;1741461;80;21011;-76
2021/07/05 12:56:06;;;;;;;3.55;3.25;;;;;;;27.65;43.27;97742.30;1699594;82;20943;-78
2021/07/05 12:58:37;;;;;;;3.83;3.52;;;;;;;27.68;42.65;97743.22;1745550;80;21551;-78
2021/07/05 13:01:14;;;;;;;3.42;3.12;;;;;;;27.71;43.42;97744.13;1761219;80;21077;-78
2021/07/05 13:03:58;;;;;;;2.98;2.77;;;;;;;27.73;44.21;97740.62;1737007;80;21029;-79
2021/07/05 13:06:25;;;;;;;3.90;3.60;;;;;;;27.73;44.39;97736.48;1695956;82;21052;-79
2021/07/05 13:09:05;;;;;;;3.72;3.42;;;;;;;27.72;44.35;97741.69;1695798;81;21146;-77
2021/07/05 13:11:43;;;;;;;6.55;3.80;;;;;;;27.73;43.87;97737.00;1701324;81;20991;-77
2021/07/05 13:14:16;;;;;;;6.00;4.37;;;;;;;27.70;44.49;97738.33;1685099;83;20938;-77
2021/07/05 13:16:43;;;;;;;7.70;3.83;;;;;;;27.69;44.99;97736.63;1700212;82;21040;-79
2021/07/05 13:19:20;;;;;;;4.30;3.90;;;;;;;27.69;44.97;97740.77;1699347;82;20978;-79
2021/07/05 13:21:51;;;;;;;3.67;3.22;;;;;;;27.67;44.32;97736.03;1691462;83;21062;-78
2021/07/05 13:24:32;;;;;;;3.72;3.42;;;;;;;27.65;44.94;97738.16;1720303;80;21451;-78
2021/07/05 13:26:59;;;;;;;4.75;3.70;;;;;;;27.64;44.76;97741.16;1688960;83;21015;-78
2021/07/05 13:29:33;;;;;;;4.55;3.42;;;;;;;27.64;44.75;97735.63;1702673;82;21003;-78
2021/07/05 13:32:00;;;;;;;6.35;3.83;;;;;;;27.64;45.04;97736.50;1677926;83;21568;-78
2021/07/05 13:34:42;;;;;;;3.90;3.60;;;;;;;27.63;44.46;97734.80;1697859;82;21006;-79
2021/07/05 13:37:24;;;;;;;4.05;3.65;;;;;;;27.64;43.39;97726.84;1755130;80;21165;-78
2021/07/05 13:40:00;;;;;;;4.90;3.55;;;;;;;27.64;44.03;97728.73;1752061;80;20963;-78
2021/07/05 13:42:26;;;;;;;6.55;4.55;;;;;;;27.63;43.40;97736.18;1748504;81;20990;-79
2021/07/05 13:44:54;;;;;;;6.90;4.00;;;;;;;27.63;44.52;97736.73;1766806;80;20940;-77
2021/07/05 13:50:19;;;;;;;3.52;3.22;;;;;;;27.65;43.55;97742.30;1759968;80;21107;-78
2021/07/05 13:52:57;;;;;;;3.15;2.92;;;;;;;27.66;44.22;97737.09;1752981;81;21006;-79
2021/07/05 13:55:27;;;;;;;16.80;4.80;;;;;;;27.66;44.87;97736.27;1757505;80;20997;-77
2021/07/05 13:57:53;;;;;;;4.08;3.77;;;;;;;27.63;45.09;97733.97;1754527;81;21022;-78
2021/07/05 14:00:21;;;;;;;3.80;3.42;;;;;;;27.60;44.42;97735.27;1749854;81;21005;-77
2021/07/05 14:02:48;;;;;;;4.50;3.83;;;;;;;27.55;43.78;97736.51;1763672;81;21084;-78
2021/07/05 14:05:22;;;;;;;4.47;4.12;;;;;;;27.50;43.87;97730.86;1748446;81;21610;-78
2021/07/05 14:07:49;;;;;;;5.08;3.67;;;;;;;27.48;44.64;97735.73;1751116;81;20986;-79
2021/07/05 14:10:16;;;;;;;4.62;3.72;;;;;;;27.43;45.33;97735.05;1755960;80;20947;-78
2021/07/05 14:12:44;;;;;;;5.05;3.58;;;;;;;27.45;45.76;97737.58;1757509;80;20995;-79
2021/07/05 14:15:11;;;;;;;4.37;3.98;;;;;;;27.45;46.09;97740.34;1761564;80;21064;-79
2021/07/05 14:17:38;;;;;;;3.83;3.52;;;;;;;27.45;46.33;97733.44;1749220;81;20978;-79
2021/07/05 14:20:06;;;;;;;7.55;4.40;;;;;;;27.44;46.22;97733.16;1763357;81;20948;-79
2021/07/05 14:22:33;;;;;;;5.33;4.05;;;;;;;27.42;45.72;97736.66;1757860;80;21022;-78
2021/07/05 14:25:00;;;;;;;5.50;3.77;;;;;;;27.38;45.96;97734.36;1750959;80;20914;-79
2021/07/05 14:28:07;;;;;;;4.35;3.95;;;;;;;27.39;45.76;97736.61;1797415;79;23004;-78
2021/07/05 14:30:35;;;;;;;3.72;3.42;;;;;;;27.36;45.66;97739.28;1758028;81;20984;-77
2021/07/05 14:33:01;;;;;;;4.30;3.55;;;;;;;27.35;44.48;97733.45;1758070;81;21582;-78
2021/07/05 14:35:27;;;;;;;3.67;3.47;;;;;;;27.33;44.38;97732.84;1757816;81;20992;-76
2021/07/05 14:37:54;;;;;;;3.77;3.52;;;;;;;27.32;44.84;97733.91;1757787;81;21422;-78
2021/07/05 14:40:21;;;;;;;4.92;4.28;;;;;;;27.28;45.21;97731.29;1758014;81;20935;-78
2021/07/05 14:42:48;;;;;;;4.28;3.98;;;;;;;27.26;44.80;97727.94;1757843;81;20972;-79
2021/07/05 14:45:15;;;;;;;4.25;3.92;;;;;;;27.23;44.71;97732.53;1757883;81;21131;-78
2021/07/05 14:47:44;;;;;;;4.50;4.20;;;;;;;27.19;45.10;97729.91;1757921;81;21428;-78
2021/07/05 14:50:14;;;;;;;4.80;4.40;;;;;;;27.15;45.85;97733.67;1757646;81;21526;-79
2021/07/05 14:52:41;;;;;;;4.42;4.12;;;;;;;27.12;45.34;97730.51;1758236;81;21450;-79
2021/07/05 14:55:14;;;;;;;4.37;3.98;;;;;;;27.09;45.60;97736.48;1757937;81;20980;-79
2021/07/05 14:57:41;;;;;;;4.42;4.10;;;;;;;27.04;46.74;97733.89;1757758;81;21553;-77
2021/07/05 15:00:12;;;;;;;4.25;3.85;;;;;;;26.98;45.85;97734.80;1757861;81;20941;-78
2021/07/05 15:02:40;;;;;;;4.35;4.05;;;;;;;26.94;45.84;97741.83;1757825;81;21577;-79
2021/07/05 15:05:07;;;;;;;6.25;4.80;;;;;;;26.86;45.70;97731.11;1757807;81;20941;-77
2021/07/05 15:07:33;;;;;;;4.33;3.98;;;;;;;26.81;47.19;97737.84;1757752;81;21027;-79
2021/07/05 15:10:01;;;;;;;4.87;3.95;;;;;;;26.75;47.65;97742.88;1757962;81;21136;-77
2021/07/05 15:12:27;;;;;;;4.65;4.25;;;;;;;26.69;47.81;97733.60;1757934;81;20953;-78
2021/07/05 15:14:54;;;;;;;9.43;5.28;;;;;;;26.65;47.60;97733.77;1757849;81;21453;-78
2021/07/05 15:17:20;;;;;;;4.83;4.42;;;;;;;26.61;48.32;97731.11;1758000;81;21514;-80
2021/07/05 15:19:48;;;;;;;4.35;4.05;;;;;;;26.56;48.57;97727.66;1757823;81;21442;-80
2021/07/05 15:22:15;;;;;;;5.28;4.87;;;;;;;26.51;48.39;97720.61;1758453;81;21031;-79
2021/07/05 15:24:41;;;;;;;4.83;4.08;;;;;;;26.46;48.53;97721.83;1757843;81;21482;-79
2021/07/05 15:27:07;;;;;;;4.80;4.37;;;;;;;26.41;49.17;97721.64;1751183;81;20950;-78
2021/07/05 15:29:35;;;;;;;6.03;5.53;;;;;;;26.33;49.66;97729.13;1744799;81;21515;-78
2021/07/05 15:32:04;;;;;;;5.75;5.30;;;;;;;26.30;49.61;97728.20;1745013;82;21566;-82
2021/07/05 15:34:32;;;;;;;5.72;5.20;;;;;;;26.26;49.87;97725.58;1744524;82;21122;-79
2021/07/05 15:36:58;;;;;;;9.45;5.80;;;;;;;26.24;50.38;97729.63;1744948;82;20977;-77
2021/07/05 15:39:28;;;;;;;7.35;6.03;;;;;;;26.19;50.16;97724.80;1744285;82;20977;-79
2021/07/05 15:41:53;;;;;;;7.67;5.53;;;;;;;26.15;50.06;97726.30;1744385;81;20910;-80
2021/07/05 15:44:19;;;;;;;5.58;5.17;;;;;;;26.11;50.23;97731.41;1744345;82;20921;-81
2021/07/05 15:46:46;;;;;;;6.30;5.70;;;;;;;26.08;50.04;97733.78;1743878;82;21120;-78
2021/07/05 15:49:12;;;;;;;7.75;5.60;;;;;;;26.05;50.04;97738.34;1744345;82;20953;-78
2021/07/05 15:51:39;;;;;;;7.53;5.78;;;;;;;26.00;49.57;97731.27;1744204;82;20978;-79
2021/07/05 15:54:08;;;;;;;7.92;4.72;;;;;;;25.98;49.14;97734.78;1744236;81;20934;-78
2021/07/05 15:56:35;;;;;;;6.45;5.15;;;;;;;25.94;48.98;97746.20;1744186;82;20961;-79
2021/07/05 15:59:01;;;;;;;6.87;6.15;;;;;;;25.92;49.07;97745.59;1744216;82;21822;-77
2021/07/05 16:01:28;;;;;;;6.42;4.95;;;;;;;25.88;49.63;97745.70;1744262;81;20965;-78
2021/07/05 16:03:55;;;;;;;6.97;4.60;;;;;;;25.85;49.15;97742.56;1744057;82;21514;-78
2021/07/05 16:06:21;;;;;;;6.12;5.30;;;;;;;25.82;49.17;97745.20;1744285;81;21012;-80
2021/07/05 16:08:48;;;;;;;5.70;4.42;;;;;;;25.80;50.06;97752.84;1744336;81;21088;-78
2021/07/05 16:11:14;;;;;;;6.83;5.55;;;;;;;25.75;50.00;97750.75;1744288;82;21485;-78
2021/07/05 16:13:42;;;;;;;5.37;4.87;;;;;;;25.73;50.43;97763.02;1744241;82;20968;-80
2021/07/05 16:16:10;;;;;;;5.22;4.83;;;;;;;25.70;50.77;97760.72;1744157;81;21013;-78
2021/07/05 16:18:36;;;;;;;5.65;5.25;;;;;;;25.65;50.82;97764.66;1744090;82;20989;-80
2021/07/05 16:21:04;;;;;;;7.53;4.87;;;;;;;25.61;51.02;97760.14;1744286;81;20930;-78
2021/07/05 16:23:32;;;;;;;8.10;5.47;;;;;;;25.57;51.46;97752.87;1744428;82;21087;-78
2021/07/05 16:25:58;;;;;;;7.08;4.47;;;;;;;25.54;51.41;97761.55;1743971;82;20945;-78
2021/07/05 16:28:24;;;;;;;5.22;4.83;;;;;;;25.51;51.33;97763.87;1744269;81;21438;-79
2021/07/05 16:30:53;;;;;;;5.50;4.70;;;;;;;25.46;51.56;97767.27;1744173;82;21016;-77
2021/07/05 16:33:19;;;;;;;10.35;4.97;;;;;;;25.42;51.97;97768.24;1744494;81;20973;-80
2021/07/05 16:35:48;;;;;;;5.65;5.15;;;;;;;25.39;52.20;97771.97;1744198;81;21094;-79
2021/07/05 16:38:19;;;;;;;6.95;5.10;;;;;;;25.36;52.15;97772.40;1743992;81;20981;-79
2021/07/05 16:40:48;;;;;;;7.40;5.70;;;;;;;25.33;52.51;97772.83;1744046;82;20981;-78
2021/07/05 16:43:15;;;;;;;7.92;6.10;;;;;;;25.31;52.57;97774.96;1744148;81;21479;-79
2021/07/05 16:45:41;;;;;;;7.47;5.72;;;;;;;25.29;52.98;97774.31;1744113;82;20926;-79
2021/07/05 16:48:11;;;;;;;6.47;5.97;;;;;;;25.27;53.26;97773.66;1744294;82;21129;-78
2021/07/05 16:50:48;;;;;;;6.15;5.50;;;;;;;25.27;53.41;97779.16;1744055;81;20942;-78
2021/07/05 16:53:06;;;;;;;5.70;5.20;;;;;;;25.27;53.47;97784.66;1743401;81;22045;-80
2021/07/05 16:55:35;;;;;;;12.15;6.12;;;;;;;25.24;53.64;97784.55;1744418;81;20973;-79
2021/07/05 16:58:01;;;;;;;5.20;4.65;;;;;;;25.25;54.40;97792.57;1744224;82;21249;-79
2021/07/05 17:00:29;;;;;;;7.05;5.70;;;;;;;25.26;54.13;97789.31;1744316;82;21455;-79
2021/07/05 17:03:03;;;;;;;8.40;5.85;;;;;;;25.28;54.14;97789.10;1744053;81;20938;-79
2021/07/05 17:05:30;;;;;;;7.47;5.97;;;;;;;25.28;54.07;97789.10;1744199;82;20921;-81
2021/07/05 17:07:58;;;;;;;6.22;5.72;;;;;;;25.27;53.89;97792.90;1744050;82;20992;-79
2021/07/05 17:10:25;;;;;;;6.12;5.53;;;;;;;25.24;53.92;97789.53;1744268;82;21541;-79
2021/07/05 17:12:51;;;;;;;6.33;5.72;;;;;;;25.19;54.12;97792.05;1744187;81;22112;-81
2021/07/05 17:15:21;;;;;;;6.30;5.40;;;;;;;25.16;54.24;97797.98;1744443;82;20956;-79
2021/07/05 17:17:48;;;;;;;5.53;4.92;;;;;;;25.11;54.86;97795.58;1743588;81;21008;-77
2021/07/05 17:20:17;;;;;;;7.47;5.10;;;;;;;25.06;54.54;97794.84;1744070;81;20977;-78
2021/07/05 17:22:44;;;;;;;5.15;4.75;;;;;;;25.01;54.88;97793.28;1744183;82;20973;-79
2021/07/05 17:25:13;;;;;;;7.53;4.95;;;;;;;24.95;55.15;97799.09;1744273;81;21450;-78
2021/07/05 17:27:40;;;;;;;5.05;4.65;;;;;;;24.87;55.45;97807.02;1749957;81;20938;-79
2021/07/05 17:30:09;;;;;;;6.05;4.58;;;;;;;24.80;55.26;97806.20;1757447;81;21007;-79
2021/07/05 17:32:35;;;;;;;5.20;4.22;;;;;;;24.74;55.33;97812.53;1757259;81;20972;-77
2021/07/05 17:35:03;;;;;;;5.20;4.70;;;;;;;24.67;55.64;97803.44;1757481;81;20996;-81
2021/07/05 17:37:29;;;;;;;5.95;5.35;;;;;;;24.62;56.24;97813.67;1757465;81;21508;-78
2021/07/05 17:39:55;;;;;;;11.78;6.30;;;;;;;24.56;57.02;97810.91;1757307;81;20981;-80
2021/07/05 17:42:23;;;;;;;5.37;4.87;;;;;;;24.49;56.70;97812.28;1757371;81;20948;-79
2021/07/05 17:44:49;;;;;;;6.15;5.55;;;;;;;24.43;57.36;97819.44;1757555;81;20973;-78
2021/07/05 17:47:16;;;;;;;8.43;5.28;;;;;;;24.39;58.02;97825.05;1757329;81;20982;-80
2021/07/05 17:49:42;;;;;;;6.67;4.95;;;;;;;24.32;58.44;97820.06;1757381;81;21767;-80
2021/07/05 17:52:09;;;;;;;10.40;6.83;;;;;;;24.25;58.84;97820.57;1757709;81;21000;-80
2021/07/05 17:54:36;;;;;;;12.00;5.97;;;;;;;24.19;59.29;97825.02;1757286;81;20948;-81
2021/07/05 17:57:03;;;;;;;8.55;6.10;;;;;;;24.13;59.74;97832.70;1757562;81;21019;-79
2021/07/05 17:59:31;;;;;;;8.73;5.75;;;;;;;24.07;59.37;97833.52;1757573;81;20893;-78
2021/07/05 18:01:59;;;;;;;9.10;6.00;;;;;;;24.02;60.17;97838.25;1757615;81;21821;-79
2021/07/05 18:04:28;;;;;;;8.03;6.90;;;;;;;23.97;60.54;97835.29;1757401;81;20909;-81
2021/07/05 18:06:56;;;;;;;9.95;6.65;;;;;;;23.94;60.97;97844.77;1757629;81;20914;-80
2021/07/05 18:09:23;;;;;;;8.63;7.58;;;;;;;23.90;61.17;97841.27;1757303;81;20951;-79
2021/07/05 18:11:51;;;;;;;7.60;6.87;;;;;;;23.87;61.57;97846.66;1757299;81;21468;-83
